Aérodrome :
LOGIN :

S'inscrire | Disclaimer

   EN    FR    IT 

 










Légende :    VFR   VFR Marginal   IFR   IFR Intensif   IFR Très Intensif
Visi : 
Plafond : 
>= 8 km
>= 3000ft
5 à 8 km
1000 à 3000 ft
1500m à 5 km
500 à 1000 ft
800 à 1500m
200 à 500 ft
< 800m
< 200 ft
Symboles :   Orages  Brouillard  Fortes neiges  Fortes précipitations  Vent > 20 kt
SIGMETs :   Divers  Orages  Givrage  Turbulence  Onde Orograph.  Cendres Volcan.







- Altitude de l'aérodrome : 197 ft
- Code IATA : XOG
- Voir les cartes d'approche


LFMO - Orange

DERNIER METAR :
  • 150200Z AUTO 33017KT CAVOK 01/M04 Q1020 TEMPO 35020G35KT

METARs EXPIRÉS :
  • 150130Z AUTO 34009KT 300V030 CAVOK 01/M04 Q1020 TEMPO 35020G35KT
  • 150100Z AUTO 01011G22KT 310V100 CAVOK 01/M04 Q1020 TEMPO 35020G35KT
  • 150030Z AUTO 35011KT CAVOK 01/M04 Q1019 TEMPO 35020G35KT
  • 150000Z AUTO 33012KT 310V020 CAVOK 01/M04 Q1020 TEMPO 35020G35KT
  • 142330Z AUTO 33014KT 300V010 CAVOK 01/M04 Q1020 TEMPO 35020G35KT

TAF TAF LFMO
Valide du 14 à 21h jusqu'au 15 à 21h UTC


142000Z 1421/1521 36015G25KT CAVOK
TEMPO 1421/1505 35020G35KT
BECMG 1506/1508 34015KT
BECMG 1513/1515 33005KT
Pas de NOTAMs connus pour ce terrain.



MET'MAP, la Météo Aéronautique d'un coup d'oeil ! - Copyright ORBIFLY Décembre 2007 - Disclaimer

ORBIFLY MET'MAP TEAM :

Programmation & Développement : Alexandra Zaïnal
Conception & Développement : Baudouin d'Aumeries
Co-Programmation & Développement : Marc-Olivier Méhu
Soutien technique & logistique : Manuel Goepfert

Contact : metmap@orbifly.com




SOURCES & CREDITS :

   NOAA